Time;durP1;ratioP1;P1;durP2;ratioP2;P2;SDS_P1;SDS_P2;PMS_P1;PMS_P2;Temp;Humidity;BMP_temperature;BMP_pressure;BME280_temperature;BME280_humidity;BME280_pressure;Samples;Min_cycle;Max_cycle;Signal;HPM_P1;HPM_P2
2021/03/17 00:00:09;;;;;;;9.40;2.40;;;23.00;24.80;;;;;;5044893;28;20085;-63
2021/03/17 00:02:35;;;;;;;9.20;2.15;;;23.00;24.60;;;;;;5040182;28;20066;-65
2021/03/17 00:05:03;;;;;;;10.57;2.20;;;23.00;23.90;;;;;;5038826;28;20089;-65
2021/03/17 00:07:29;;;;;;;16.58;2.20;;;23.00;24.50;;;;;;5039293;28;20120;-65
2021/03/17 00:09:56;;;;;;;6.60;2.28;;;22.80;24.40;;;;;;5040881;28;20514;-65
2021/03/17 00:12:23;;;;;;;10.70;2.78;;;22.80;24.80;;;;;;5041183;28;20603;-66
2021/03/17 00:14:49;;;;;;;10.45;2.90;;;22.60;24.70;;;;;;5041139;28;20078;-66
2021/03/17 00:17:16;;;;;;;10.80;2.28;;;22.60;25.20;;;;;;5037392;28;20066;-65
2021/03/17 00:19:42;;;;;;;13.00;2.83;;;22.70;25.70;;;;;;5034155;28;20069;-66
2021/03/17 00:22:09;;;;;;;8.88;2.35;;;22.80;25.00;;;;;;5040021;28;20125;-66
2021/03/17 00:24:36;;;;;;;10.93;2.00;;;22.70;25.60;;;;;;5034862;28;20085;-67
2021/03/17 00:27:04;;;;;;;10.60;2.30;;;22.70;25.10;;;;;;5037682;28;20094;-66
2021/03/17 00:29:30;;;;;;;15.98;5.53;;;22.70;24.80;;;;;;5040187;28;20467;-66
2021/03/17 00:31:57;;;;;;;15.20;2.97;;;22.60;25.40;;;;;;5016957;28;20212;-66
2021/03/17 00:34:24;;;;;;;10.63;2.08;;;22.30;25.40;;;;;;5038304;28;20282;-66
2021/03/17 00:36:50;;;;;;;15.35;2.67;;;22.40;25.80;;;;;;5039982;28;20069;-65
2021/03/17 00:39:17;;;;;;;15.32;2.85;;;22.30;25.10;;;;;;5042189;28;20073;-66
2021/03/17 00:41:43;;;;;;;17.83;2.90;;;22.30;25.30;;;;;;5021255;28;20078;-66
2021/03/17 00:44:10;;;;;;;10.45;2.33;;;22.10;25.30;;;;;;5023514;28;20070;-67
2021/03/17 00:46:36;;;;;;;13.40;2.25;;;22.00;25.20;;;;;;5041937;28;20227;-68
2021/03/17 00:49:03;;;;;;;10.93;2.47;;;21.90;25.60;;;;;;5044538;28;20143;-65
2021/03/17 00:51:29;;;;;;;16.75;2.95;;;21.80;26.10;;;;;;5021635;28;20582;-64
2021/03/17 00:53:56;;;;;;;15.38;2.40;;;21.90;26.20;;;;;;5042421;28;20176;-66
2021/03/17 00:56:22;;;;;;;21.15;3.83;;;21.90;26.20;;;;;;5044548;28;20127;-67
2021/03/17 00:58:49;;;;;;;13.25;2.28;;;21.90;25.90;;;;;;5030219;28;20076;-66
2021/03/17 01:01:15;;;;;;;12.75;2.30;;;21.90;25.50;;;;;;5026007;28;20169;-66
2021/03/17 01:03:42;;;;;;;12.20;2.33;;;21.70;25.60;;;;;;5039629;28;20097;-66
2021/03/17 01:06:09;;;;;;;20.55;2.63;;;21.70;25.90;;;;;;5037262;28;20070;-67
2021/03/17 01:08:36;;;;;;;10.27;2.78;;;21.80;25.80;;;;;;5036561;28;20074;-65
2021/03/17 01:11:03;;;;;;;18.73;2.90;;;21.80;25.70;;;;;;5040438;28;20088;-64
2021/03/17 01:13:29;;;;;;;14.20;2.70;;;21.60;26.10;;;;;;5040453;28;20080;-67
2021/03/17 01:15:56;;;;;;;11.38;2.83;;;21.50;26.40;;;;;;5034500;28;20086;-67
2021/03/17 01:18:22;;;;;;;12.13;2.75;;;21.40;26.50;;;;;;5039485;28;20082;-65
2021/03/17 01:20:49;;;;;;;17.02;3.17;;;21.30;26.60;;;;;;5035734;28;20109;-66
2021/03/17 01:23:15;;;;;;;17.83;2.72;;;21.10;27.20;;;;;;5037306;28;20078;-65
2021/03/17 01:25:45;;;;;;;23.02;3.05;;;21.00;27.80;;;;;;5038806;28;20546;-64
2021/03/17 01:28:12;;;;;;;22.38;2.70;;;20.90;27.60;;;;;;5039140;28;20113;-65
2021/03/17 01:30:40;;;;;;;11.77;3.22;;;20.70;27.60;;;;;;5037822;28;20208;-64
2021/03/17 01:33:09;;;;;;;18.40;4.03;;;20.60;27.80;;;;;;5036629;28;20482;-67
2021/03/17 01:35:36;;;;;;;23.55;4.00;;;20.50;28.10;;;;;;5038768;28;20066;-64
2021/03/17 01:38:04;;;;;;;25.55;3.78;;;20.30;28.20;;;;;;5039901;28;20097;-66
2021/03/17 01:40:31;;;;;;;16.67;3.15;;;20.30;28.40;;;;;;5043053;28;20797;-65
2021/03/17 01:42:58;;;;;;;15.10;2.75;;;20.20;28.50;;;;;;5040415;28;20545;-66
2021/03/17 01:45:25;;;;;;;17.98;3.00;;;20.10;28.40;;;;;;5037891;28;20116;-66
2021/03/17 01:47:53;;;;;;;24.80;3.78;;;20.10;28.90;;;;;;5035413;28;20094;-67
2021/03/17 01:50:23;;;;;;;15.82;2.72;;;20.00;28.90;;;;;;5018759;28;20070;-64
2021/03/17 01:52:51;;;;;;;12.68;2.72;;;19.80;29.20;;;;;;5035821;28;20109;-64
2021/03/17 01:55:18;;;;;;;16.52;2.88;;;19.70;29.10;;;;;;5038518;28;20481;-64
2021/03/17 01:57:46;;;;;;;16.20;3.80;;;19.70;29.10;;;;;;5039199;28;20082;-65
2021/03/17 02:00:15;;;;;;;25.95;4.20;;;19.60;29.30;;;;;;5036136;28;20069;-65
2021/03/17 02:02:49;;;;;;;24.73;3.90;;;19.40;29.70;;;;;;5040331;28;20085;-66
2021/03/17 02:05:17;;;;;;;18.20;3.72;;;19.40;29.90;;;;;;5039636;28;20474;-66
2021/03/17 02:07:44;;;;;;;24.63;6.25;;;19.30;29.90;;;;;;5038077;28;20604;-66
2021/03/17 02:10:14;;;;;;;16.30;5.80;;;19.30;30.20;;;;;;5042238;28;20168;-66
2021/03/17 02:12:56;;;;;;;15.05;4.05;;;19.20;30.40;;;;;;5038194;28;20523;-66
2021/03/17 02:15:47;;;;;;;13.98;3.80;;;19.10;30.40;;;;;;5019375;28;20108;-66
2021/03/17 02:18:39;;;;;;;22.23;4.53;;;19.10;30.50;;;;;;5025705;28;20078;-65
2021/03/17 02:21:33;;;;;;;26.55;4.55;;;19.00;30.80;;;;;;5045044;28;20212;-64
2021/03/17 02:24:30;;;;;;;25.55;5.30;;;18.90;31.50;;;;;;5039321;28;20081;-63
2021/03/17 02:27:15;;;;;;;27.85;6.00;;;18.90;31.00;;;;;;5041506;28;20098;-66
2021/03/17 02:30:15;;;;;;;26.67;4.90;;;18.80;31.30;;;;;;5036114;28;20082;-62
2021/03/17 02:33:19;;;;;;;23.83;4.80;;;18.70;31.70;;;;;;5036097;28;20554;-64
2021/03/17 02:35:52;;;;;;;27.48;4.90;;;18.70;32.00;;;;;;5038143;28;20078;-65
2021/03/17 02:38:25;;;;;;;21.92;5.50;;;18.60;31.80;;;;;;5041613;28;20087;-65
2021/03/17 02:40:56;;;;;;;26.88;6.18;;;18.50;32.00;;;;;;5040386;28;20112;-65
2021/03/17 02:43:34;;;;;;;26.60;6.25;;;18.40;32.00;;;;;;5039716;28;20539;-63
2021/03/17 02:46:06;;;;;;;28.08;6.32;;;18.40;31.90;;;;;;5037090;28;20132;-62
2021/03/17 02:48:49;;;;;;;24.27;5.88;;;18.40;31.90;;;;;;5039131;28;20082;-65
2021/03/17 02:51:33;;;;;;;30.65;4.82;;;18.40;32.60;;;;;;5036998;28;21219;-62
2021/03/17 02:54:06;;;;;;;25.90;5.47;;;18.30;32.30;;;;;;5021290;28;20169;-64
2021/03/17 02:56:38;;;;;;;29.02;6.35;;;18.30;32.20;;;;;;5020411;28;20530;-62
2021/03/17 02:59:06;;;;;;;27.10;5.30;;;18.20;33.00;;;;;;5036989;28;20080;-66
2021/03/17 03:01:35;;;;;;;26.63;5.60;;;18.20;32.70;;;;;;5036472;28;20077;-66
2021/03/17 03:04:06;;;;;;;37.25;8.13;;;18.10;33.10;;;;;;5037799;28;20165;-64
2021/03/17 03:06:33;;;;;;;30.50;7.55;;;18.10;33.50;;;;;;5041358;28;20185;-65
2021/03/17 03:09:01;;;;;;;35.92;7.05;;;18.00;33.40;;;;;;5037681;28;20078;-62
2021/03/17 03:11:30;;;;;;;26.20;7.22;;;18.00;33.70;;;;;;5038481;28;20089;-63
2021/03/17 03:13:57;;;;;;;30.08;7.47;;;18.00;34.00;;;;;;5040676;28;20101;-65
2021/03/17 03:16:25;;;;;;;30.73;7.18;;;17.90;33.90;;;;;;5043501;28;20070;-65
2021/03/17 03:18:54;;;;;;;38.63;7.80;;;17.90;34.20;;;;;;5042637;28;20070;-65
2021/03/17 03:21:24;;;;;;;28.65;7.15;;;17.80;34.40;;;;;;5025577;28;20078;-64
2021/03/17 03:23:53;;;;;;;34.53;7.63;;;17.80;34.40;;;;;;5041408;28;20527;-63
2021/03/17 03:26:20;;;;;;;47.50;7.85;;;17.70;34.70;;;;;;5044036;28;20128;-64
2021/03/17 03:28:48;;;;;;;41.97;6.97;;;17.70;34.90;;;;;;5042341;28;20089;-67
2021/03/17 03:31:15;;;;;;;58.97;7.47;;;17.70;33.90;;;;;;5032227;28;20573;-64
2021/03/17 03:33:43;;;;;;;35.40;7.18;;;17.70;34.40;;;;;;5045136;28;20090;-66
2021/03/17 03:36:10;;;;;;;33.65;6.93;;;17.60;34.20;;;;;;5018840;28;21413;-62
2021/03/17 03:38:38;;;;;;;37.30;6.90;;;17.60;35.40;;;;;;5043400;28;20081;-64
2021/03/17 03:41:06;;;;;;;41.75;6.75;;;17.60;34.80;;;;;;5022923;28;20076;-64
2021/03/17 03:43:33;;;;;;;34.33;5.97;;;17.60;35.00;;;;;;5043502;28;20123;-63
2021/03/17 03:46:00;;;;;;;31.45;6.93;;;17.50;35.00;;;;;;5043513;28;20077;-65
2021/03/17 03:48:26;;;;;;;;;;;17.60;35.00;;;;;;5044964;28;20173;-65
2021/03/17 03:50:53;;;;;;;30.85;6.88;;;17.50;35.30;;;;;;5041233;28;20342;-65
2021/03/17 03:53:24;;;;;;;33.50;6.68;;;17.50;35.50;;;;;;5043139;28;20129;-64
2021/03/17 03:56:17;;;;;;;35.88;6.53;;;17.40;35.80;;;;;;5043195;28;20070;-66
2021/03/17 03:58:49;;;;;;;27.77;6.25;;;17.50;35.80;;;;;;5026251;28;20074;-66
2021/03/17 04:01:31;;;;;;;27.00;5.35;;;17.40;35.60;;;;;;5042442;28;20073;-66
2021/03/17 04:04:09;;;;;;;33.40;5.43;;;17.40;35.80;;;;;;5043343;28;20502;-67
2021/03/17 04:06:36;;;;;;;44.50;5.55;;;17.40;35.60;;;;;;5040848;28;20089;-66
2021/03/17 04:09:04;;;;;;;29.90;6.13;;;17.30;35.80;;;;;;5043646;28;20082;-66
2021/03/17 04:11:32;;;;;;;32.97;6.55;;;17.30;35.80;;;;;;5044887;28;20074;-65
2021/03/17 04:14:04;;;;;;;34.13;6.90;;;17.30;36.00;;;;;;5045773;28;20533;-65
2021/03/17 04:16:33;;;;;;;38.03;5.80;;;17.20;35.80;;;;;;5039197;28;20081;-64
2021/03/17 04:19:01;;;;;;;19.55;4.70;;;17.20;36.10;;;;;;5027607;28;20093;-65
2021/03/17 04:21:31;;;;;;;36.42;5.72;;;17.10;36.70;;;;;;5043167;28;20207;-65
2021/03/17 04:24:01;;;;;;;36.58;5.07;;;17.10;36.90;;;;;;5039609;28;20093;-64
2021/03/17 04:26:31;;;;;;;30.08;4.07;;;17.00;36.90;;;;;;5024068;28;20186;-66
2021/03/17 04:28:58;;;;;;;29.48;4.75;;;16.90;36.60;;;;;;5024471;28;20097;-67
2021/03/17 04:31:26;;;;;;;26.27;4.35;;;16.90;36.20;;;;;;5041754;28;20123;-67
2021/03/17 04:33:55;;;;;;;25.98;4.68;;;16.80;35.90;;;;;;5025664;28;20468;-67
2021/03/17 04:36:22;;;;;;;26.88;4.35;;;16.70;35.50;;;;;;5041714;28;20508;-63
2021/03/17 04:38:49;;;;;;;30.60;3.95;;;16.70;36.00;;;;;;5042091;28;20446;-64
2021/03/17 04:41:17;;;;;;;33.60;5.00;;;16.60;35.50;;;;;;5021585;28;20220;-64
2021/03/17 04:43:44;;;;;;;24.00;4.55;;;16.60;35.30;;;;;;5041973;28;20070;-64
2021/03/17 04:46:12;;;;;;;23.55;4.15;;;16.50;34.90;;;;;;5040676;28;20070;-66
2021/03/17 04:48:41;;;;;;;21.77;3.55;;;16.50;35.50;;;;;;5023266;28;20100;-66
2021/03/17 04:51:10;;;;;;;17.13;3.00;;;16.50;34.60;;;;;;5040397;28;22423;-60
2021/03/17 04:53:37;;;;;;;18.30;3.28;;;16.40;34.40;;;;;;5042388;28;20074;-65
2021/03/17 04:56:05;;;;;;;17.17;4.63;;;16.40;34.60;;;;;;5039889;28;20532;-66
2021/03/17 04:58:36;;;;;;;13.77;3.58;;;16.30;34.80;;;;;;5044189;28;20095;-64
2021/03/17 05:01:14;;;;;;;25.50;5.53;;;16.30;34.90;;;;;;5022304;28;20078;-65
2021/03/17 05:03:42;;;;;;;20.48;3.35;;;16.20;34.70;;;;;;5042702;28;20070;-66
2021/03/17 05:06:10;;;;;;;16.15;2.75;;;16.10;34.50;;;;;;5039592;28;20444;-67
2021/03/17 05:08:42;;;;;;;16.17;2.97;;;16.10;35.00;;;;;;5041627;28;20086;-67
2021/03/17 05:11:10;;;;;;;19.75;2.42;;;16.10;34.40;;;;;;5018567;28;20090;-68
2021/03/17 05:13:37;;;;;;;14.00;2.55;;;16.00;34.50;;;;;;5037723;28;20097;-66
2021/03/17 05:16:06;;;;;;;19.77;3.80;;;16.00;35.20;;;;;;5038748;28;20103;-66
2021/03/17 05:18:34;;;;;;;12.55;2.92;;;15.90;35.00;;;;;;5038932;28;20066;-68
2021/03/17 05:21:02;;;;;;;28.30;3.80;;;15.90;34.90;;;;;;5040474;28;20161;-66
2021/03/17 05:23:29;;;;;;;15.15;3.20;;;15.90;35.20;;;;;;5041598;28;20066;-66
2021/03/17 05:25:58;;;;;;;16.60;3.08;;;15.90;35.00;;;;;;5042557;28;20081;-67
2021/03/17 05:28:25;;;;;;;10.32;2.67;;;15.80;35.10;;;;;;5044164;28;20110;-65
2021/03/17 05:30:53;;;;;;;11.63;2.45;;;15.90;35.40;;;;;;5045377;28;20078;-63
2021/03/17 05:33:26;;;;;;;18.33;3.15;;;15.80;35.20;;;;;;5039051;28;20445;-65
2021/03/17 05:35:53;;;;;;;14.48;2.65;;;15.80;35.30;;;;;;5039937;28;20418;-64
2021/03/17 05:38:20;;;;;;;18.50;2.30;;;15.70;35.50;;;;;;5042712;28;20061;-65
2021/03/17 05:40:47;;;;;;;15.52;2.92;;;15.70;35.40;;;;;;5041566;28;20081;-65
2021/03/17 05:43:14;;;;;;;15.43;2.65;;;15.70;35.70;;;;;;5040118;28;20066;-66
2021/03/17 05:45:40;;;;;;;18.75;2.92;;;15.60;35.70;;;;;;5038865;28;20078;-64
2021/03/17 05:48:08;;;;;;;15.65;3.00;;;15.60;35.80;;;;;;5023620;28;20197;-67
2021/03/17 05:50:35;;;;;;;19.38;2.75;;;15.60;35.60;;;;;;5036647;28;20557;-66
2021/03/17 05:53:04;;;;;;;14.70;2.30;;;15.50;36.30;;;;;;5036904;28;21467;-66
2021/03/17 05:55:31;;;;;;;15.82;2.15;;;15.60;36.40;;;;;;5040842;28;20074;-66
2021/03/17 05:57:58;;;;;;;11.63;2.53;;;15.60;36.40;;;;;;5034822;28;20469;-63
2021/03/17 06:00:25;;;;;;;19.25;2.60;;;15.50;36.40;;;;;;5038072;28;20082;-65
2021/03/17 06:02:52;;;;;;;23.48;2.58;;;15.50;36.40;;;;;;5035601;28;20066;-65
2021/03/17 06:05:21;;;;;;;23.58;3.00;;;15.50;36.60;;;;;;5036850;28;20070;-63
2021/03/17 06:08:02;;;;;;;16.40;2.65;;;15.50;37.00;;;;;;5037210;28;20592;-65
2021/03/17 06:10:31;;;;;;;31.52;3.70;;;15.50;36.80;;;;;;5032828;28;20070;-64
2021/03/17 06:13:06;;;;;;;25.05;3.28;;;15.40;36.90;;;;;;5031141;28;20124;-64
2021/03/17 06:15:34;;;;;;;29.83;3.40;;;15.40;37.40;;;;;;5033262;28;20084;-64
2021/03/17 06:18:15;;;;;;;26.30;3.20;;;15.40;37.50;;;;;;5037808;28;20082;-66
2021/03/17 06:20:45;;;;;;;15.73;3.13;;;15.40;37.50;;;;;;5033928;28;20070;-64
2021/03/17 06:23:13;;;;;;;17.02;2.83;;;15.30;38.30;;;;;;5017678;28;20074;-65
2021/03/17 06:25:45;;;;;;;15.38;2.65;;;15.30;38.40;;;;;;5037207;28;20070;-65
2021/03/17 06:28:14;;;;;;;10.52;2.65;;;15.20;39.00;;;;;;5035065;28;20094;-63
2021/03/17 06:30:45;;;;;;;14.57;2.67;;;15.10;39.20;;;;;;5040379;28;20268;-63
2021/03/17 06:33:11;;;;;;;15.63;2.72;;;15.10;39.40;;;;;;5034193;28;20116;-65
2021/03/17 06:35:38;;;;;;;14.05;3.03;;;15.10;39.80;;;;;;5039583;28;20148;-65
2021/03/17 06:38:04;;;;;;;;;;;15.00;40.00;;;;;;5033224;28;20097;-64
2021/03/17 06:40:34;;;;;;;17.45;3.25;;;15.00;40.10;;;;;;5035968;28;19958;-66
2021/03/17 06:43:08;;;;;;;10.82;2.97;;;15.00;40.80;;;;;;5019247;28;20078;-64
2021/03/17 06:45:48;;;;;;;18.38;3.75;;;14.90;40.90;;;;;;5023240;28;20074;-66
2021/03/17 06:48:25;;;;;;;14.77;3.75;;;14.90;40.90;;;;;;5016578;28;20101;-65
2021/03/17 06:51:03;;;;;;;;;;;14.80;40.90;;;;;;5034795;28;20089;-63
2021/03/17 06:53:50;;;;;;;18.38;3.85;;;14.70;41.40;;;;;;5032657;28;19973;-64
2021/03/17 06:56:25;;;;;;;15.02;3.70;;;14.60;42.00;;;;;;5035150;28;20082;-63
2021/03/17 06:59:14;;;;;;;13.18;3.63;;;14.60;43.30;;;;;;5037341;28;20069;-64
2021/03/17 07:01:49;;;;;;;13.68;3.42;;;14.50;43.50;;;;;;5036573;28;20073;-64
2021/03/17 07:04:25;;;;;;;17.67;4.50;;;14.50;44.50;;;;;;5037969;28;20077;-63
2021/03/17 07:07:02;;;;;;;18.38;3.75;;;14.40;44.70;;;;;;5036271;28;20120;-64
2021/03/17 07:09:31;;;;;;;13.80;3.70;;;14.30;44.20;;;;;;5038769;28;20073;-65
2021/03/17 07:12:06;;;;;;;13.52;3.78;;;14.30;44.60;;;;;;5039051;28;20112;-64
2021/03/17 07:14:41;;;;;;;19.83;3.95;;;14.20;45.10;;;;;;5037521;28;20081;-62
2021/03/17 07:17:28;;;;;;;16.38;4.13;;;14.20;45.40;;;;;;5040602;28;20562;-64
2021/03/17 07:19:55;;;;;;;18.37;3.80;;;14.10;45.70;;;;;;5040310;28;20164;-63
2021/03/17 07:22:24;;;;;;;18.20;4.53;;;14.00;46.00;;;;;;5036951;28;20090;-64
2021/03/17 07:25:01;;;;;;;16.98;4.88;;;14.00;47.20;;;;;;5034699;28;20165;-63
2021/03/17 07:27:32;;;;;;;15.95;4.10;;;14.00;47.20;;;;;;5035901;28;20573;-65
2021/03/17 07:29:58;;;;;;;18.70;3.90;;;14.00;47.60;;;;;;5035780;28;20077;-64
2021/03/17 07:32:48;;;;;;;17.73;4.43;;;13.90;46.80;;;;;;5038067;28;20088;-65
2021/03/17 07:35:34;;;;;;;16.27;4.55;;;13.90;47.20;;;;;;5021356;28;20110;-62
2021/03/17 07:38:14;;;;;;;19.05;4.50;;;13.80;47.50;;;;;;5036396;28;20554;-63
2021/03/17 07:40:45;;;;;;;16.20;4.35;;;13.90;47.70;;;;;;5034499;28;20644;-63
2021/03/17 07:43:14;;;;;;;22.30;4.93;;;13.80;48.30;;;;;;5038054;28;20128;-64
2021/03/17 07:45:54;;;;;;;22.55;4.50;;;13.70;47.90;;;;;;5034286;28;20070;-66
2021/03/17 07:48:21;;;;;;;23.23;4.93;;;13.60;48.50;;;;;;5035035;28;20191;-63
2021/03/17 07:50:50;;;;;;;19.85;5.22;;;13.50;48.50;;;;;;5039034;28;20141;-65
2021/03/17 07:53:24;;;;;;;17.48;4.95;;;13.50;48.70;;;;;;5037092;28;20255;-64
2021/03/17 07:55:55;;;;;;;19.67;4.50;;;13.40;48.50;;;;;;5036058;28;20070;-63
2021/03/17 07:58:24;;;;;;;15.13;4.22;;;13.50;49.80;;;;;;5033571;28;20088;-64
2021/03/17 08:00:52;;;;;;;27.17;4.30;;;13.50;49.90;;;;;;5037483;28;20218;-63
2021/03/17 08:03:21;;;;;;;26.48;5.28;;;13.40;49.90;;;;;;5037931;28;20098;-64
2021/03/17 08:05:48;;;;;;;17.80;4.93;;;13.40;49.40;;;;;;5022610;28;20089;-64
2021/03/17 08:08:15;;;;;;;18.33;4.97;;;13.30;49.80;;;;;;5020699;28;20193;-63
2021/03/17 08:10:44;;;;;;;21.15;4.38;;;13.30;49.60;;;;;;5034799;28;20070;-65
2021/03/17 08:13:13;;;;;;;20.10;4.60;;;13.20;49.90;;;;;;5032372;28;20074;-62
2021/03/17 08:15:43;;;;;;;21.88;5.10;;;13.10;49.90;;;;;;5032798;28;20093;-63
2021/03/17 08:18:34;;;;;;;18.13;4.90;;;13.20;51.00;;;;;;5035808;28;20085;-61
2021/03/17 08:21:01;;;;;;;20.00;4.55;;;13.20;50.70;;;;;;5039162;28;20195;-64
2021/03/17 08:23:50;;;;;;;23.67;5.53;;;13.20;50.70;;;;;;5035063;28;20082;-63
2021/03/17 08:26:37;;;;;;;15.85;5.95;;;13.20;51.70;;;;;;5021146;28;20429;-64
2021/03/17 08:29:13;;;;;;;19.38;5.97;;;13.10;51.30;;;;;;5026132;28;20195;-64
2021/03/17 08:31:39;;;;;;;21.83;5.87;;;13.00;51.30;;;;;;5037640;28;20077;-63
2021/03/17 08:34:21;;;;;;;32.25;6.35;;;13.00;51.50;;;;;;5039361;28;20080;-63
2021/03/17 08:36:58;;;;;;;26.17;7.90;;;13.00;52.70;;;;;;5018044;28;20608;-64
2021/03/17 08:39:32;;;;;;;22.27;6.85;;;12.90;52.10;;;;;;5037643;28;20085;-63
2021/03/17 08:42:26;;;;;;;25.25;7.00;;;12.90;52.80;;;;;;5034184;28;20124;-63
2021/03/17 08:44:54;;;;;;;17.95;6.07;;;12.90;52.90;;;;;;5034904;28;20151;-64
2021/03/17 08:47:23;;;;;;;19.33;5.55;;;12.80;52.70;;;;;;5033312;28;20089;-63
2021/03/17 08:49:53;;;;;;;21.15;5.30;;;12.80;52.90;;;;;;5039987;28;20093;-63
2021/03/17 08:52:20;;;;;;;31.95;5.07;;;12.70;53.30;;;;;;5018931;28;20113;-64
2021/03/17 08:54:53;;;;;;;21.80;5.10;;;12.70;54.00;;;;;;5033640;28;20085;-64
2021/03/17 08:57:20;;;;;;;26.90;6.50;;;12.70;53.90;;;;;;5037434;28;20152;-64
2021/03/17 08:59:50;;;;;;;20.33;5.15;;;12.70;54.50;;;;;;5035356;28;20089;-63
2021/03/17 09:02:36;;;;;;;20.15;5.13;;;12.70;54.30;;;;;;5033952;28;20081;-64
2021/03/17 09:05:23;;;;;;;23.10;5.25;;;12.60;54.30;;;;;;5026756;28;20104;-63
2021/03/17 09:08:10;;;;;;;22.25;5.40;;;12.50;54.30;;;;;;5019450;28;20209;-64
2021/03/17 09:10:48;;;;;;;24.75;5.70;;;12.50;55.30;;;;;;5035488;28;20085;-64
2021/03/17 09:13:36;;;;;;;22.58;6.03;;;12.50;54.60;;;;;;5034677;28;20502;-63
2021/03/17 09:16:04;;;;;;;22.30;5.63;;;12.50;54.90;;;;;;5038460;28;20077;-65
2021/03/17 09:18:31;;;;;;;22.20;5.88;;;12.50;55.70;;;;;;5036437;28;20074;-63
2021/03/17 09:20:57;;;;;;;;;;;12.50;56.00;;;;;;5036180;28;20140;-65
2021/03/17 09:23:34;;;;;;;26.65;5.57;;;12.50;55.60;;;;;;5021188;28;19965;-63
2021/03/17 09:26:01;;;;;;;16.77;5.72;;;12.50;55.80;;;;;;5034238;28;20062;-63
2021/03/17 09:28:30;;;;;;;22.85;5.53;;;12.50;56.30;;;;;;5034718;28;20140;-62
2021/03/17 09:31:09;;;;;;;21.17;6.75;;;12.50;56.00;;;;;;5032573;28;20527;-64
2021/03/17 09:33:43;;;;;;;23.88;6.28;;;12.50;56.60;;;;;;5033718;28;20093;-64
2021/03/17 09:36:24;;;;;;;20.23;6.20;;;12.50;56.00;;;;;;5037776;28;20073;-63
2021/03/17 09:38:53;;;;;;;26.63;7.22;;;12.40;55.90;;;;;;5033345;28;20565;-62
2021/03/17 09:41:21;;;;;;;25.15;6.85;;;12.30;56.00;;;;;;5035674;28;20543;-63
2021/03/17 09:43:51;;;;;;;28.20;7.10;;;12.30;56.60;;;;;;5032837;28;20105;-64
2021/03/17 09:46:40;;;;;;;27.73;7.78;;;12.40;57.20;;;;;;5035054;28;20078;-63
2021/03/17 09:49:14;;;;;;;29.88;7.80;;;12.40;57.30;;;;;;5032101;28;20135;-62
2021/03/17 09:51:40;;;;;;;26.98;8.43;;;12.30;57.40;;;;;;5037597;28;20164;-63
2021/03/17 09:54:10;;;;;;;33.20;9.75;;;12.30;57.50;;;;;;5034167;28;20088;-63
2021/03/17 09:56:40;;;;;;;29.67;9.57;;;12.30;57.40;;;;;;5035890;28;20118;-63
2021/03/17 09:59:31;;;;;;;31.80;10.23;;;12.30;58.10;;;;;;5036108;28;20066;-64
2021/03/17 10:02:02;;;;;;;31.88;9.93;;;12.30;57.90;;;;;;5033908;28;20070;-62
2021/03/17 10:04:32;;;;;;;31.38;11.13;;;12.30;58.30;;;;;;5033819;28;20066;-64
2021/03/17 10:07:01;;;;;;;32.15;11.40;;;12.10;57.90;;;;;;5038810;28;20445;-62
2021/03/17 10:09:33;;;;;;;30.75;10.68;;;12.10;59.30;;;;;;5035103;28;20070;-62
2021/03/17 10:12:16;;;;;;;37.90;11.45;;;12.10;59.60;;;;;;5030909;28;20070;-62
2021/03/17 10:14:48;;;;;;;37.65;12.20;;;12.20;59.60;;;;;;5017471;28;20085;-62
2021/03/17 10:17:17;;;;;;;34.83;12.32;;;12.10;59.90;;;;;;5035528;28;20643;-63
2021/03/17 10:19:51;;;;;;;33.97;11.73;;;12.10;59.80;;;;;;5040073;28;20070;-63
2021/03/17 10:22:19;;;;;;;32.35;11.68;;;11.90;60.10;;;;;;5032987;28;20078;-63
2021/03/17 10:24:48;;;;;;;28.60;10.70;;;11.80;60.80;;;;;;5037573;28;20073;-63
2021/03/17 10:27:21;;;;;;;31.27;10.48;;;11.70;60.90;;;;;;5036125;28;20431;-62
2021/03/17 10:29:51;;;;;;;28.38;8.20;;;11.70;62.00;;;;;;5033796;28;20085;-62
2021/03/17 10:32:21;;;;;;;25.67;7.40;;;11.60;62.30;;;;;;5038830;28;20076;-64
2021/03/17 10:34:48;;;;;;;25.45;6.55;;;11.50;63.20;;;;;;5035486;28;20165;-63
2021/03/17 10:37:20;;;;;;;20.80;5.53;;;11.50;63.60;;;;;;5039028;28;20073;-63
2021/03/17 10:39:49;;;;;;;23.55;5.45;;;11.50;64.30;;;;;;5038841;28;20077;-64
2021/03/17 10:42:25;;;;;;;18.20;5.10;;;11.40;65.00;;;;;;5040770;28;20077;-63
2021/03/17 10:45:24;;;;;;;28.30;5.32;;;11.30;65.40;;;;;;5038685;28;20077;-63
2021/03/17 10:47:52;;;;;;;20.33;4.60;;;11.30;66.20;;;;;;5036401;28;20094;-62
2021/03/17 10:50:28;;;;;;;25.55;5.40;;;11.30;66.90;;;;;;5042321;28;20070;-64
2021/03/17 10:52:54;;;;;;;23.58;5.18;;;11.10;67.70;;;;;;5036899;28;20125;-63
2021/03/17 10:55:24;;;;;;;17.40;4.22;;;11.10;69.20;;;;;;5023153;28;20105;-63
2021/03/17 10:57:52;;;;;;;26.67;5.13;;;11.10;69.10;;;;;;5041783;28;20073;-64
2021/03/17 11:00:28;;;;;;;18.77;4.57;;;11.10;70.10;;;;;;5040529;28;20651;-64
2021/03/17 11:02:55;;;;;;;15.82;5.05;;;11.10;70.60;;;;;;5041731;28;20073;-63
2021/03/17 11:05:28;;;;;;;20.75;4.30;;;11.10;71.10;;;;;;5039547;28;20066;-63
2021/03/17 11:07:55;;;;;;;17.52;5.00;;;11.10;72.50;;;;;;5040129;28;20101;-63
2021/03/17 11:10:34;;;;;;;16.60;4.90;;;11.00;73.00;;;;;;5039201;28;20069;-64
2021/03/17 11:13:10;;;;;;;14.38;4.15;;;10.90;74.10;;;;;;5041885;28;20074;-63
2021/03/17 11:15:48;;;;;;;17.85;4.43;;;10.90;74.70;;;;;;5038468;28;20058;-65
2021/03/17 11:18:22;;;;;;;28.95;4.53;;;10.90;75.00;;;;;;5036992;28;20131;-63
2021/03/17 11:20:50;;;;;;;23.33;5.00;;;10.90;76.00;;;;;;5020843;28;20078;-62
2021/03/17 11:23:21;;;;;;;16.77;4.53;;;10.80;76.80;;;;;;5043005;28;20156;-64
2021/03/17 11:25:49;;;;;;;20.30;4.47;;;10.80;77.40;;;;;;5037504;28;20112;-64
2021/03/17 11:28:19;;;;;;;25.60;4.78;;;10.80;78.00;;;;;;5036097;28;20148;-64
2021/03/17 11:30:55;;;;;;;23.77;4.63;;;10.80;78.90;;;;;;5034401;28;20431;-64
2021/03/17 11:33:22;;;;;;;20.73;4.72;;;10.80;79.30;;;;;;5037549;28;20152;-64
2021/03/17 11:35:54;;;;;;;20.08;4.72;;;10.80;80.20;;;;;;5036159;28;20089;-63
2021/03/17 11:38:21;;;;;;;24.85;5.57;;;10.80;81.10;;;;;;5038820;28;20074;-64
2021/03/17 11:40:48;;;;;;;24.00;5.20;;;10.80;81.90;;;;;;5039384;28;20066;-64
2021/03/17 11:43:18;;;;;;;17.83;4.70;;;10.80;81.60;;;;;;5036789;28;20164;-64
2021/03/17 11:45:47;;;;;;;27.25;5.78;;;10.80;81.80;;;;;;5036581;28;20217;-64
2021/03/17 11:48:15;;;;;;;21.20;5.53;;;10.80;82.60;;;;;;5035664;28;20521;-63
2021/03/17 11:50:44;;;;;;;23.45;5.57;;;10.80;82.60;;;;;;5040547;28;20066;-62
2021/03/17 11:53:10;;;;;;;23.23;5.00;;;10.80;82.60;;;;;;5035680;28;20114;-62
2021/03/17 11:55:37;;;;;;;;;;;10.80;83.10;;;;;;5037648;28;20522;-62
2021/03/17 11:58:05;;;;;;;19.20;4.45;;;10.90;83.20;;;;;;5037136;28;19964;-64
2021/03/17 12:00:33;;;;;;;17.60;4.13;;;10.80;83.00;;;;;;5036560;28;20070;-63
2021/03/17 12:02:59;;;;;;;19.88;4.65;;;10.90;83.00;;;;;;5019571;28;20610;-61
2021/03/17 12:05:27;;;;;;;25.10;4.65;;;10.80;83.40;;;;;;5037123;28;20069;-63
2021/03/17 12:07:53;;;;;;;21.77;4.90;;;10.80;83.10;;;;;;5038722;28;20543;-64
2021/03/17 12:10:20;;;;;;;;;;;10.80;83.00;;;;;;5040298;28;20446;-63
2021/03/17 12:12:47;;;;;;;25.25;5.55;;;10.90;83.40;;;;;;5018654;28;19957;-64
2021/03/17 12:15:18;;;;;;;23.58;4.25;;;10.80;82.80;;;;;;5038518;28;20070;-65
2021/03/17 12:17:45;;;;;;;17.08;4.72;;;10.80;83.10;;;;;;5015461;28;20069;-64
2021/03/17 12:20:13;;;;;;;18.38;4.47;;;10.80;84.00;;;;;;5037023;28;20081;-61
2021/03/17 12:22:39;;;;;;;28.00;5.75;;;10.80;84.50;;;;;;5035993;28;20478;-63
2021/03/17 12:25:08;;;;;;;13.65;4.80;;;10.60;83.70;;;;;;5037234;28;20523;-63
2021/03/17 12:27:35;;;;;;;25.30;4.90;;;10.60;84.10;;;;;;5039524;28;20126;-63
2021/03/17 12:30:05;;;;;;;20.08;5.28;;;10.70;84.50;;;;;;5035827;28;20066;-63
2021/03/17 12:32:31;;;;;;;30.05;5.22;;;10.70;84.40;;;;;;5039824;28;20074;-63
2021/03/17 12:34:57;;;;;;;;;;;10.60;84.10;;;;;;5041523;28;20093;-64
2021/03/17 12:37:24;;;;;;;26.08;5.93;;;10.60;84.50;;;;;;5037272;28;19965;-63
2021/03/17 12:39:50;;;;;;;;;;;10.60;84.10;;;;;;5035144;28;20062;-63
2021/03/17 12:42:17;;;;;;;24.67;5.57;;;10.50;84.80;;;;;;5037370;28;20036;-64
2021/03/17 12:44:43;;;;;;;;;;;10.60;85.00;;;;;;5040453;28;20097;-63
2021/03/17 12:47:09;;;;;;;26.15;7.10;;;10.60;84.90;;;;;;5036514;28;20518;-63
2021/03/17 12:49:36;;;;;;;;;;;10.50;85.00;;;;;;5022179;28;20072;-63
2021/03/17 12:52:04;;;;;;;28.63;9.30;;;10.50;84.80;;;;;;5037799;28;20011;-64
2021/03/17 12:54:31;;;;;;;30.88;9.63;;;10.50;85.00;;;;;;5035560;28;20104;-61
2021/03/17 12:56:57;;;;;;;;;;;10.40;85.00;;;;;;5034762;28;20076;-69
2021/03/17 12:59:23;;;;;;;27.67;9.00;;;10.40;85.40;;;;;;5036460;28;19962;-65